USTRANSCOM 7530


BIKF
Keflavík International Airport
Reykjavík, IS
KWRI
Joint Base McGuire Dix Lakehurst
Wrightstown, US

Activity Log

Date Flight Route Aircraft Duration
No Flights Yet

Route Details

Aircraft Information
Primary: Boeing 757-200SF
Backup: Not Available
Route Data
Distance: 2305nm
Sched. Duration: 6h 00m
Avg. Duration: 0h 00m (-600m)
Times Flown: 0
Recm'd Route: RALOV1D RALOV RAKIS 6235N N6040 5944N 5650N YAY J580 YQY YQI J585 ACK J62 RIFLE J174 EMJAY HEADI
Planned Altitude: 34,000ft
Origin Wx: BIKF 272200Z 06029KT 6000 -BLSN FEW010 BKN042 M02/M04 Q0988
Dest. Wx: KWRI 272156Z AUTO 29020G34KT 10SM CLR 04/M10 A2972 RMK AO2 PK WND 27036/37 SLP065 T00421103 $
Notes: USTRANSCOM CONTRACT FLIGHT

Financial History
Total Freight: 0lbs
Average Load: 0lbs/flt
Fuel Used: 0lbs
Avg. Fuel Used: 0lbs/flt
Fuel Expense: $0
Avg. Fuel Expense: $0
Avg. Fuel Cost: $0/lbs
Total Gross Income: $0
Pilot Pay: $0
Total Expenses: $0
Total Revenue: $0
Average Revenue: $0